sensor_id;sensor_type;location;lat;lon;timestamp;P1;durP1;ratioP1;P2;durP2;ratioP2
85873;SDS011;76391;44.166;2.958;2024-02-26T00:02:10;1.75;;;0.50;;
85873;SDS011;76391;44.166;2.958;2024-02-26T00:04:40;4.05;;;1.83;;
85873;SDS011;76391;44.166;2.958;2024-02-26T00:07:10;3.03;;;0.60;;
85873;SDS011;76391;44.166;2.958;2024-02-26T00:09:40;0.75;;;0.20;;
85873;SDS011;76391;44.166;2.958;2024-02-26T00:12:16;1.13;;;0.32;;
85873;SDS011;76391;44.166;2.958;2024-02-26T00:14:46;4.07;;;0.80;;
85873;SDS011;76391;44.166;2.958;2024-02-26T00:17:19;2.85;;;0.57;;
85873;SDS011;76391;44.166;2.958;2024-02-26T00:19:48;1.17;;;0.30;;
85873;SDS011;76391;44.166;2.958;2024-02-26T00:22:21;2.72;;;0.50;;
85873;SDS011;76391;44.166;2.958;2024-02-26T00:24:54;4.78;;;0.70;;
85873;SDS011;76391;44.166;2.958;2024-02-26T00:27:26;2.67;;;0.40;;
85873;SDS011;76391;44.166;2.958;2024-02-26T00:29:54;2.70;;;0.40;;
85873;SDS011;76391;44.166;2.958;2024-02-26T00:32:25;4.60;;;1.30;;
85873;SDS011;76391;44.166;2.958;2024-02-26T00:34:57;2.63;;;1.13;;
85873;SDS011;76391;44.166;2.958;2024-02-26T00:37:27;1.67;;;0.60;;
85873;SDS011;76391;44.166;2.958;2024-02-26T00:39:55;4.20;;;0.70;;
85873;SDS011;76391;44.166;2.958;2024-02-26T00:42:29;2.65;;;0.40;;
85873;SDS011;76391;44.166;2.958;2024-02-26T00:47:24;2.33;;;0.77;;
85873;SDS011;76391;44.166;2.958;2024-02-26T00:50:11;2.05;;;0.50;;
85873;SDS011;76391;44.166;2.958;2024-02-26T00:52:43;3.22;;;0.60;;
85873;SDS011;76391;44.166;2.958;2024-02-26T00:55:13;3.72;;;0.52;;
85873;SDS011;76391;44.166;2.958;2024-02-26T00:57:44;3.03;;;0.60;;
85873;SDS011;76391;44.166;2.958;2024-02-26T01:00:11;1.15;;;0.38;;
85873;SDS011;76391;44.166;2.958;2024-02-26T01:02:42;4.15;;;0.40;;
85873;SDS011;76391;44.166;2.958;2024-02-26T01:05:10;1.13;;;0.50;;
85873;SDS011;76391;44.166;2.958;2024-02-26T01:07:44;4.97;;;0.60;;
85873;SDS011;76391;44.166;2.958;2024-02-26T01:10:13;1.73;;;0.50;;
85873;SDS011;76391;44.166;2.958;2024-02-26T01:12:44;4.60;;;0.45;;
85873;SDS011;76391;44.166;2.958;2024-02-26T01:15:12;2.80;;;0.50;;
85873;SDS011;76391;44.166;2.958;2024-02-26T01:17:39;3.78;;;0.50;;
85873;SDS011;76391;44.166;2.958;2024-02-26T01:20:06;4.68;;;0.63;;
85873;SDS011;76391;44.166;2.958;2024-02-26T01:22:34;3.92;;;0.80;;
85873;SDS011;76391;44.166;2.958;2024-02-26T01:25:01;2.15;;;0.60;;
85873;SDS011;76391;44.166;2.958;2024-02-26T01:27:36;1.75;;;0.50;;
85873;SDS011;76391;44.166;2.958;2024-02-26T01:30:06;1.95;;;0.30;;
85873;SDS011;76391;44.166;2.958;2024-02-26T01:32:36;2.45;;;0.50;;
85873;SDS011;76391;44.166;2.958;2024-02-26T01:35:11;2.72;;;0.30;;
85873;SDS011;76391;44.166;2.958;2024-02-26T01:37:40;1.88;;;0.55;;
85873;SDS011;76391;44.166;2.958;2024-02-26T01:40:11;1.58;;;0.50;;
85873;SDS011;76391;44.166;2.958;2024-02-26T01:42:47;2.85;;;0.40;;
85873;SDS011;76391;44.166;2.958;2024-02-26T01:45:18;2.55;;;0.85;;
85873;SDS011;76391;44.166;2.958;2024-02-26T01:47:49;1.95;;;0.40;;
85873;SDS011;76391;44.166;2.958;2024-02-26T01:50:26;1.58;;;0.40;;
85873;SDS011;76391;44.166;2.958;2024-02-26T01:52:59;4.45;;;0.60;;
85873;SDS011;76391;44.166;2.958;2024-02-26T01:55:31;3.10;;;0.50;;
85873;SDS011;76391;44.166;2.958;2024-02-26T01:58:04;5.53;;;1.20;;
85873;SDS011;76391;44.166;2.958;2024-02-26T02:00:36;3.20;;;0.57;;
85873;SDS011;76391;44.166;2.958;2024-02-26T02:03:05;2.70;;;0.50;;
85873;SDS011;76391;44.166;2.958;2024-02-26T02:05:34;1.52;;;0.40;;
85873;SDS011;76391;44.166;2.958;2024-02-26T02:08:08;2.38;;;0.60;;
85873;SDS011;76391;44.166;2.958;2024-02-26T02:10:41;2.63;;;0.40;;
85873;SDS011;76391;44.166;2.958;2024-02-26T02:13:09;2.97;;;0.40;;
85873;SDS011;76391;44.166;2.958;2024-02-26T02:18:11;2.00;;;0.52;;
85873;SDS011;76391;44.166;2.958;2024-02-26T02:20:45;3.20;;;0.52;;
85873;SDS011;76391;44.166;2.958;2024-02-26T02:23:13;3.90;;;0.60;;
85873;SDS011;76391;44.166;2.958;2024-02-26T02:25:53;3.85;;;0.70;;
85873;SDS011;76391;44.166;2.958;2024-02-26T02:28:26;3.13;;;0.50;;
85873;SDS011;76391;44.166;2.958;2024-02-26T02:31:09;2.20;;;0.57;;
85873;SDS011;76391;44.166;2.958;2024-02-26T02:33:40;5.07;;;0.50;;
85873;SDS011;76391;44.166;2.958;2024-02-26T02:36:08;6.63;;;0.73;;
85873;SDS011;76391;44.166;2.958;2024-02-26T02:38:52;2.80;;;0.95;;
85873;SDS011;76391;44.166;2.958;2024-02-26T02:41:32;4.90;;;1.10;;
85873;SDS011;76391;44.166;2.958;2024-02-26T02:44:06;2.53;;;0.70;;
85873;SDS011;76391;44.166;2.958;2024-02-26T02:46:32;4.97;;;0.80;;
85873;SDS011;76391;44.166;2.958;2024-02-26T02:49:08;5.63;;;0.50;;
85873;SDS011;76391;44.166;2.958;2024-02-26T02:51:41;6.28;;;1.00;;
85873;SDS011;76391;44.166;2.958;2024-02-26T02:54:20;3.22;;;1.13;;
85873;SDS011;76391;44.166;2.958;2024-02-26T02:56:49;7.80;;;1.10;;
85873;SDS011;76391;44.166;2.958;2024-02-26T02:59:16;2.58;;;0.52;;
85873;SDS011;76391;44.166;2.958;2024-02-26T03:01:57;3.10;;;0.43;;
85873;SDS011;76391;44.166;2.958;2024-02-26T03:04:27;2.63;;;0.43;;
85873;SDS011;76391;44.166;2.958;2024-02-26T03:07:03;1.83;;;0.40;;
85873;SDS011;76391;44.166;2.958;2024-02-26T03:09:39;4.07;;;0.40;;
85873;SDS011;76391;44.166;2.958;2024-02-26T03:12:10;3.95;;;0.70;;
85873;SDS011;76391;44.166;2.958;2024-02-26T03:14:42;4.97;;;1.98;;
85873;SDS011;76391;44.166;2.958;2024-02-26T03:17:11;5.43;;;0.65;;
85873;SDS011;76391;44.166;2.958;2024-02-26T03:19:39;3.47;;;0.65;;
85873;SDS011;76391;44.166;2.958;2024-02-26T03:22:10;4.18;;;0.60;;
85873;SDS011;76391;44.166;2.958;2024-02-26T03:27:06;3.63;;;0.50;;
85873;SDS011;76391;44.166;2.958;2024-02-26T03:29:38;3.10;;;0.73;;
85873;SDS011;76391;44.166;2.958;2024-02-26T03:32:07;3.22;;;0.70;;
85873;SDS011;76391;44.166;2.958;2024-02-26T03:34:39;7.57;;;1.10;;
85873;SDS011;76391;44.166;2.958;2024-02-26T03:37:11;6.30;;;0.90;;
85873;SDS011;76391;44.166;2.958;2024-02-26T03:39:43;9.70;;;1.08;;
85873;SDS011;76391;44.166;2.958;2024-02-26T03:42:11;5.90;;;1.27;;
85873;SDS011;76391;44.166;2.958;2024-02-26T03:44:41;7.25;;;1.23;;
85873;SDS011;76391;44.166;2.958;2024-02-26T03:47:16;4.25;;;0.85;;
85873;SDS011;76391;44.166;2.958;2024-02-26T03:49:44;3.83;;;0.60;;
85873;SDS011;76391;44.166;2.958;2024-02-26T03:52:16;2.92;;;0.50;;
85873;SDS011;76391;44.166;2.958;2024-02-26T03:54:45;8.02;;;0.90;;
85873;SDS011;76391;44.166;2.958;2024-02-26T03:57:11;2.75;;;0.47;;
85873;SDS011;76391;44.166;2.958;2024-02-26T03:59:43;7.95;;;0.47;;
85873;SDS011;76391;44.166;2.958;2024-02-26T04:02:14;5.95;;;0.70;;
85873;SDS011;76391;44.166;2.958;2024-02-26T04:04:41;3.97;;;0.80;;
85873;SDS011;76391;44.166;2.958;2024-02-26T04:07:18;6.63;;;0.88;;
85873;SDS011;76391;44.166;2.958;2024-02-26T04:10:01;1.77;;;0.60;;
85873;SDS011;76391;44.166;2.958;2024-02-26T04:12:31;7.50;;;0.75;;
85873;SDS011;76391;44.166;2.958;2024-02-26T04:15:01;3.47;;;0.40;;
85873;SDS011;76391;44.166;2.958;2024-02-26T04:17:32;6.57;;;0.63;;
85873;SDS011;76391;44.166;2.958;2024-02-26T04:20:01;2.42;;;0.60;;
85873;SDS011;76391;44.166;2.958;2024-02-26T04:24:55;4.93;;;0.50;;
85873;SDS011;76391;44.166;2.958;2024-02-26T04:27:23;5.57;;;0.57;;
85873;SDS011;76391;44.166;2.958;2024-02-26T04:29:58;10.13;;;0.65;;
85873;SDS011;76391;44.166;2.958;2024-02-26T04:32:26;4.28;;;0.70;;
85873;SDS011;76391;44.166;2.958;2024-02-26T04:34:53;11.73;;;1.02;;
85873;SDS011;76391;44.166;2.958;2024-02-26T04:37:21;7.57;;;0.73;;
85873;SDS011;76391;44.166;2.958;2024-02-26T04:47:08;8.82;;;1.17;;
85873;SDS011;76391;44.166;2.958;2024-02-26T04:49:36;5.97;;;2.05;;
85873;SDS011;76391;44.166;2.958;2024-02-26T04:52:07;6.88;;;0.60;;
85873;SDS011;76391;44.166;2.958;2024-02-26T04:54:33;4.97;;;0.50;;
85873;SDS011;76391;44.166;2.958;2024-02-26T04:57:08;9.40;;;1.15;;
85873;SDS011;76391;44.166;2.958;2024-02-26T04:59:35;4.93;;;1.23;;
85873;SDS011;76391;44.166;2.958;2024-02-26T05:02:07;7.90;;;0.93;;
85873;SDS011;76391;44.166;2.958;2024-02-26T05:04:39;6.47;;;0.55;;
85873;SDS011;76391;44.166;2.958;2024-02-26T05:07:10;5.03;;;0.50;;
85873;SDS011;76391;44.166;2.958;2024-02-26T05:09:39;6.47;;;1.15;;
85873;SDS011;76391;44.166;2.958;2024-02-26T05:12:11;7.18;;;0.85;;
85873;SDS011;76391;44.166;2.958;2024-02-26T05:14:39;6.50;;;1.20;;
85873;SDS011;76391;44.166;2.958;2024-02-26T05:17:10;7.40;;;0.95;;
85873;SDS011;76391;44.166;2.958;2024-02-26T05:19:41;6.60;;;1.00;;
85873;SDS011;76391;44.166;2.958;2024-02-26T05:25:41;5.85;;;0.40;;
85873;SDS011;76391;44.166;2.958;2024-02-26T05:28:11;3.05;;;0.30;;
85873;SDS011;76391;44.166;2.958;2024-02-26T05:30:37;4.35;;;0.38;;
85873;SDS011;76391;44.166;2.958;2024-02-26T05:33:05;5.40;;;0.40;;
85873;SDS011;76391;44.166;2.958;2024-02-26T05:35:37;3.80;;;0.40;;
85873;SDS011;76391;44.166;2.958;2024-02-26T05:38:13;6.32;;;0.57;;
85873;SDS011;76391;44.166;2.958;2024-02-26T05:40:42;2.78;;;0.45;;
85873;SDS011;76391;44.166;2.958;2024-02-26T05:43:11;2.58;;;0.52;;
85873;SDS011;76391;44.166;2.958;2024-02-26T05:45:41;9.68;;;1.00;;
85873;SDS011;76391;44.166;2.958;2024-02-26T05:48:10;9.27;;;0.68;;
85873;SDS011;76391;44.166;2.958;2024-02-26T05:50:40;5.10;;;0.30;;
85873;SDS011;76391;44.166;2.958;2024-02-26T05:53:10;8.10;;;0.98;;
85873;SDS011;76391;44.166;2.958;2024-02-26T05:55:45;3.70;;;0.30;;
85873;SDS011;76391;44.166;2.958;2024-02-26T05:58:13;6.20;;;0.60;;
85873;SDS011;76391;44.166;2.958;2024-02-26T06:01:02;1.95;;;0.40;;
85873;SDS011;76391;44.166;2.958;2024-02-26T06:03:31;2.53;;;0.30;;
85873;SDS011;76391;44.166;2.958;2024-02-26T06:05:57;5.78;;;0.77;;
85873;SDS011;76391;44.166;2.958;2024-02-26T06:08:24;4.70;;;0.57;;
85873;SDS011;76391;44.166;2.958;2024-02-26T06:10:52;5.05;;;0.50;;
85873;SDS011;76391;44.166;2.958;2024-02-26T06:13:18;7.03;;;0.95;;
85873;SDS011;76391;44.166;2.958;2024-02-26T06:15:47;2.55;;;0.40;;
85873;SDS011;76391;44.166;2.958;2024-02-26T06:18:17;4.55;;;0.40;;
85873;SDS011;76391;44.166;2.958;2024-02-26T06:20:44;5.30;;;0.65;;
85873;SDS011;76391;44.166;2.958;2024-02-26T06:23:17;3.75;;;0.45;;
85873;SDS011;76391;44.166;2.958;2024-02-26T06:25:50;5.05;;;0.90;;
85873;SDS011;76391;44.166;2.958;2024-02-26T06:28:19;3.08;;;0.57;;
85873;SDS011;76391;44.166;2.958;2024-02-26T06:30:47;2.50;;;0.60;;
85873;SDS011;76391;44.166;2.958;2024-02-26T06:33:18;5.68;;;1.05;;
85873;SDS011;76391;44.166;2.958;2024-02-26T06:35:50;3.10;;;0.57;;
85873;SDS011;76391;44.166;2.958;2024-02-26T06:38:23;6.72;;;1.10;;
85873;SDS011;76391;44.166;2.958;2024-02-26T06:40:52;4.18;;;1.08;;
85873;SDS011;76391;44.166;2.958;2024-02-26T06:54:23;2.80;;;0.70;;
85873;SDS011;76391;44.166;2.958;2024-02-26T06:57:07;4.40;;;0.90;;
85873;SDS011;76391;44.166;2.958;2024-02-26T07:03:23;3.03;;;0.68;;
85873;SDS011;76391;44.166;2.958;2024-02-26T07:13:50;5.80;;;0.80;;
85873;SDS011;76391;44.166;2.958;2024-02-26T08:07:02;2.97;;;0.40;;
85873;SDS011;76391;44.166;2.958;2024-02-26T08:09:41;5.97;;;1.30;;
85873;SDS011;76391;44.166;2.958;2024-02-26T08:12:19;4.50;;;1.08;;
85873;SDS011;76391;44.166;2.958;2024-02-26T08:14:55;4.95;;;1.42;;
85873;SDS011;76391;44.166;2.958;2024-02-26T08:24:28;2.90;;;0.98;;
85873;SDS011;76391;44.166;2.958;2024-02-26T08:41:20;2.53;;;0.63;;
85873;SDS011;76391;44.166;2.958;2024-02-26T08:46:54;5.35;;;0.90;;
85873;SDS011;76391;44.166;2.958;2024-02-26T09:01:21;1.88;;;0.40;;
85873;SDS011;76391;44.166;2.958;2024-02-26T09:04:15;3.17;;;1.17;;
85873;SDS011;76391;44.166;2.958;2024-02-26T09:06:46;4.40;;;0.80;;
85873;SDS011;76391;44.166;2.958;2024-02-26T09:09:36;1.92;;;0.40;;
85873;SDS011;76391;44.166;2.958;2024-02-26T09:12:06;3.28;;;0.30;;
85873;SDS011;76391;44.166;2.958;2024-02-26T09:15:48;5.85;;;0.40;;
85873;SDS011;76391;44.166;2.958;2024-02-26T09:18:31;4.82;;;0.30;;
85873;SDS011;76391;44.166;2.958;2024-02-26T09:32:55;2.30;;;0.30;;
85873;SDS011;76391;44.166;2.958;2024-02-26T09:39:32;3.63;;;0.60;;
85873;SDS011;76391;44.166;2.958;2024-02-26T14:55:41;5.30;;;2.15;;
85873;SDS011;76391;44.166;2.958;2024-02-26T14:58:08;6.35;;;2.45;;
85873;SDS011;76391;44.166;2.958;2024-02-26T15:00:36;4.03;;;1.52;;
85873;SDS011;76391;44.166;2.958;2024-02-26T15:03:02;4.13;;;0.52;;
85873;SDS011;76391;44.166;2.958;2024-02-26T15:05:47;2.60;;;0.60;;
85873;SDS011;76391;44.166;2.958;2024-02-26T15:08:16;5.85;;;2.40;;
85873;SDS011;76391;44.166;2.958;2024-02-26T15:10:44;7.57;;;3.30;;
85873;SDS011;76391;44.166;2.958;2024-02-26T15:13:16;4.20;;;1.23;;
85873;SDS011;76391;44.166;2.958;2024-02-26T15:15:43;2.10;;;0.70;;
85873;SDS011;76391;44.166;2.958;2024-02-26T15:18:09;3.42;;;0.70;;
85873;SDS011;76391;44.166;2.958;2024-02-26T15:20:44;2.58;;;0.30;;
85873;SDS011;76391;44.166;2.958;2024-02-26T15:23:11;2.13;;;0.30;;
85873;SDS011;76391;44.166;2.958;2024-02-26T15:25:37;2.28;;;0.30;;
85873;SDS011;76391;44.166;2.958;2024-02-26T15:28:03;1.15;;;0.20;;
85873;SDS011;76391;44.166;2.958;2024-02-26T15:30:32;2.03;;;0.43;;
85873;SDS011;76391;44.166;2.958;2024-02-26T15:33:00;3.25;;;1.02;;
85873;SDS011;76391;44.166;2.958;2024-02-26T15:35:26;2.50;;;1.00;;
85873;SDS011;76391;44.166;2.958;2024-02-26T15:37:55;3.97;;;0.93;;
85873;SDS011;76391;44.166;2.958;2024-02-26T15:40:21;2.40;;;0.65;;
85873;SDS011;76391;44.166;2.958;2024-02-26T15:42:47;2.17;;;0.70;;
85873;SDS011;76391;44.166;2.958;2024-02-26T15:45:13;3.22;;;1.17;;
85873;SDS011;76391;44.166;2.958;2024-02-26T15:47:43;5.07;;;1.30;;
85873;SDS011;76391;44.166;2.958;2024-02-26T15:50:09;3.70;;;0.77;;
85873;SDS011;76391;44.166;2.958;2024-02-26T15:52:39;4.35;;;1.00;;
85873;SDS011;76391;44.166;2.958;2024-02-26T15:55:11;3.50;;;0.82;;
85873;SDS011;76391;44.166;2.958;2024-02-26T15:57:38;3.00;;;1.13;;
85873;SDS011;76391;44.166;2.958;2024-02-26T16:00:07;3.58;;;0.95;;
85873;SDS011;76391;44.166;2.958;2024-02-26T16:02:36;6.40;;;2.28;;
85873;SDS011;76391;44.166;2.958;2024-02-26T16:05:02;5.85;;;2.13;;
85873;SDS011;76391;44.166;2.958;2024-02-26T16:07:33;3.13;;;0.50;;
85873;SDS011;76391;44.166;2.958;2024-02-26T16:10:02;3.08;;;0.47;;
85873;SDS011;76391;44.166;2.958;2024-02-26T16:12:35;2.38;;;0.50;;
85873;SDS011;76391;44.166;2.958;2024-02-26T16:15:04;4.10;;;1.25;;
85873;SDS011;76391;44.166;2.958;2024-02-26T16:17:33;4.30;;;0.80;;
85873;SDS011;76391;44.166;2.958;2024-02-26T16:20:00;3.78;;;1.10;;
85873;SDS011;76391;44.166;2.958;2024-02-26T16:22:29;5.55;;;0.82;;
85873;SDS011;76391;44.166;2.958;2024-02-26T16:24:57;3.47;;;1.20;;
85873;SDS011;76391;44.166;2.958;2024-02-26T16:27:23;4.28;;;1.52;;
85873;SDS011;76391;44.166;2.958;2024-02-26T16:29:49;7.68;;;1.65;;
85873;SDS011;76391;44.166;2.958;2024-02-26T16:32:15;1.95;;;0.38;;
85873;SDS011;76391;44.166;2.958;2024-02-26T16:34:42;6.57;;;0.70;;
85873;SDS011;76391;44.166;2.958;2024-02-26T16:37:08;5.53;;;1.13;;
85873;SDS011;76391;44.166;2.958;2024-02-26T16:39:38;3.08;;;0.32;;
85873;SDS011;76391;44.166;2.958;2024-02-26T16:42:05;3.53;;;0.32;;
85873;SDS011;76391;44.166;2.958;2024-02-26T16:44:35;5.18;;;0.50;;
85873;SDS011;76391;44.166;2.958;2024-02-26T16:47:04;2.70;;;0.43;;
85873;SDS011;76391;44.166;2.958;2024-02-26T16:49:34;4.40;;;1.00;;
85873;SDS011;76391;44.166;2.958;2024-02-26T16:52:00;4.22;;;0.70;;
85873;SDS011;76391;44.166;2.958;2024-02-26T16:54:25;1.88;;;0.30;;
85873;SDS011;76391;44.166;2.958;2024-02-26T16:56:51;33.03;;;12.20;;
85873;SDS011;76391;44.166;2.958;2024-02-26T16:59:17;11.45;;;3.10;;
85873;SDS011;76391;44.166;2.958;2024-02-26T17:01:46;1.85;;;0.55;;
85873;SDS011;76391;44.166;2.958;2024-02-26T17:04:12;5.50;;;1.30;;
85873;SDS011;76391;44.166;2.958;2024-02-26T17:06:38;3.78;;;0.70;;
85873;SDS011;76391;44.166;2.958;2024-02-26T17:09:04;1.10;;;0.40;;
85873;SDS011;76391;44.166;2.958;2024-02-26T17:11:32;1.92;;;0.30;;
85873;SDS011;76391;44.166;2.958;2024-02-26T17:14:03;3.80;;;0.80;;
85873;SDS011;76391;44.166;2.958;2024-02-26T17:16:29;22.35;;;10.80;;
85873;SDS011;76391;44.166;2.958;2024-02-26T17:18:56;6.47;;;3.00;;
85873;SDS011;76391;44.166;2.958;2024-02-26T17:21:25;5.65;;;3.75;;
85873;SDS011;76391;44.166;2.958;2024-02-26T17:23:54;9.88;;;4.38;;
85873;SDS011;76391;44.166;2.958;2024-02-26T17:26:20;17.58;;;12.40;;
85873;SDS011;76391;44.166;2.958;2024-02-26T17:28:47;17.02;;;10.00;;
85873;SDS011;76391;44.166;2.958;2024-02-26T17:31:13;14.48;;;8.05;;
85873;SDS011;76391;44.166;2.958;2024-02-26T17:33:40;10.57;;;2.97;;
85873;SDS011;76391;44.166;2.958;2024-02-26T17:36:06;17.52;;;10.68;;
85873;SDS011;76391;44.166;2.958;2024-02-26T17:38:35;11.25;;;5.40;;
85873;SDS011;76391;44.166;2.958;2024-02-26T17:41:01;2.80;;;1.33;;
85873;SDS011;76391;44.166;2.958;2024-02-26T17:43:28;6.43;;;1.13;;
85873;SDS011;76391;44.166;2.958;2024-02-26T17:45:54;4.50;;;1.67;;
85873;SDS011;76391;44.166;2.958;2024-02-26T17:48:19;3.63;;;1.15;;
85873;SDS011;76391;44.166;2.958;2024-02-26T17:50:45;4.75;;;1.50;;
85873;SDS011;76391;44.166;2.958;2024-02-26T17:53:11;3.90;;;1.00;;
85873;SDS011;76391;44.166;2.958;2024-02-26T17:55:39;5.35;;;0.95;;
85873;SDS011;76391;44.166;2.958;2024-02-26T17:58:05;8.57;;;3.10;;
85873;SDS011;76391;44.166;2.958;2024-02-26T18:00:31;8.90;;;2.75;;
85873;SDS011;76391;44.166;2.958;2024-02-26T18:05:23;5.03;;;1.48;;
85873;SDS011;76391;44.166;2.958;2024-02-26T18:07:50;10.77;;;5.78;;
85873;SDS011;76391;44.166;2.958;2024-02-26T18:10:16;11.85;;;5.30;;
85873;SDS011;76391;44.166;2.958;2024-02-26T18:12:43;12.40;;;4.63;;
85873;SDS011;76391;44.166;2.958;2024-02-26T18:15:09;6.38;;;1.83;;
85873;SDS011;76391;44.166;2.958;2024-02-26T18:17:35;5.90;;;1.50;;
85873;SDS011;76391;44.166;2.958;2024-02-26T18:20:01;5.43;;;1.70;;
85873;SDS011;76391;44.166;2.958;2024-02-26T18:22:30;4.65;;;2.10;;
85873;SDS011;76391;44.166;2.958;2024-02-26T18:24:56;5.03;;;2.22;;
85873;SDS011;76391;44.166;2.958;2024-02-26T18:27:22;10.23;;;4.13;;
85873;SDS011;76391;44.166;2.958;2024-02-26T18:29:48;5.78;;;2.53;;
85873;SDS011;76391;44.166;2.958;2024-02-26T18:32:14;4.68;;;1.73;;
85873;SDS011;76391;44.166;2.958;2024-02-26T18:34:41;7.40;;;3.17;;
85873;SDS011;76391;44.166;2.958;2024-02-26T18:37:07;6.68;;;1.90;;
85873;SDS011;76391;44.166;2.958;2024-02-26T18:39:32;2.13;;;0.77;;
85873;SDS011;76391;44.166;2.958;2024-02-26T18:41:58;3.80;;;0.93;;
85873;SDS011;76391;44.166;2.958;2024-02-26T18:44:24;4.53;;;0.88;;
85873;SDS011;76391;44.166;2.958;2024-02-26T18:46:50;4.80;;;1.10;;
85873;SDS011;76391;44.166;2.958;2024-02-26T18:49:16;3.08;;;1.33;;
85873;SDS011;76391;44.166;2.958;2024-02-26T18:51:42;3.08;;;0.57;;
85873;SDS011;76391;44.166;2.958;2024-02-26T18:54:08;16.58;;;7.22;;
85873;SDS011;76391;44.166;2.958;2024-02-26T18:56:34;19.90;;;9.45;;
85873;SDS011;76391;44.166;2.958;2024-02-26T18:59:00;15.75;;;6.88;;
85873;SDS011;76391;44.166;2.958;2024-02-26T19:01:26;18.10;;;7.88;;
85873;SDS011;76391;44.166;2.958;2024-02-26T19:03:53;12.77;;;6.25;;
85873;SDS011;76391;44.166;2.958;2024-02-26T19:06:18;15.23;;;6.75;;
85873;SDS011;76391;44.166;2.958;2024-02-26T19:08:44;11.02;;;4.57;;
85873;SDS011;76391;44.166;2.958;2024-02-26T19:11:10;12.35;;;5.85;;
85873;SDS011;76391;44.166;2.958;2024-02-26T19:13:36;11.68;;;5.75;;
85873;SDS011;76391;44.166;2.958;2024-02-26T19:16:02;12.68;;;5.72;;
85873;SDS011;76391;44.166;2.958;2024-02-26T19:18:28;10.88;;;3.92;;
85873;SDS011;76391;44.166;2.958;2024-02-26T19:20:54;4.07;;;1.67;;
85873;SDS011;76391;44.166;2.958;2024-02-26T19:23:20;5.25;;;2.50;;
85873;SDS011;76391;44.166;2.958;2024-02-26T19:25:46;8.38;;;2.97;;
85873;SDS011;76391;44.166;2.958;2024-02-26T19:28:11;7.40;;;2.97;;
85873;SDS011;76391;44.166;2.958;2024-02-26T19:30:38;7.47;;;2.55;;
85873;SDS011;76391;44.166;2.958;2024-02-26T19:33:04;3.15;;;1.23;;
85873;SDS011;76391;44.166;2.958;2024-02-26T19:35:30;13.00;;;4.28;;
85873;SDS011;76391;44.166;2.958;2024-02-26T19:37:56;7.80;;;2.33;;
85873;SDS011;76391;44.166;2.958;2024-02-26T19:40:21;8.95;;;2.90;;
85873;SDS011;76391;44.166;2.958;2024-02-26T19:42:50;9.00;;;3.90;;
85873;SDS011;76391;44.166;2.958;2024-02-26T19:45:16;12.05;;;5.07;;
85873;SDS011;76391;44.166;2.958;2024-02-26T19:47:42;22.38;;;10.55;;
85873;SDS011;76391;44.166;2.958;2024-02-26T19:50:08;13.23;;;6.75;;
85873;SDS011;76391;44.166;2.958;2024-02-26T19:52:34;7.85;;;4.20;;
85873;SDS011;76391;44.166;2.958;2024-02-26T19:55:00;10.55;;;4.15;;
85873;SDS011;76391;44.166;2.958;2024-02-26T19:57:28;5.53;;;2.50;;
85873;SDS011;76391;44.166;2.958;2024-02-26T19:59:56;7.10;;;3.60;;
85873;SDS011;76391;44.166;2.958;2024-02-26T20:02:22;8.20;;;4.22;;
85873;SDS011;76391;44.166;2.958;2024-02-26T20:04:48;7.18;;;3.20;;
85873;SDS011;76391;44.166;2.958;2024-02-26T20:07:14;4.72;;;2.45;;
85873;SDS011;76391;44.166;2.958;2024-02-26T20:12:06;4.82;;;2.05;;
85873;SDS011;76391;44.166;2.958;2024-02-26T20:14:33;5.43;;;2.50;;
85873;SDS011;76391;44.166;2.958;2024-02-26T20:17:03;4.97;;;1.88;;
85873;SDS011;76391;44.166;2.958;2024-02-26T20:19:29;7.53;;;3.65;;
85873;SDS011;76391;44.166;2.958;2024-02-26T20:21:55;12.90;;;7.38;;
85873;SDS011;76391;44.166;2.958;2024-02-26T20:24:21;7.90;;;2.90;;
85873;SDS011;76391;44.166;2.958;2024-02-26T20:26:46;10.90;;;4.80;;
85873;SDS011;76391;44.166;2.958;2024-02-26T20:29:15;6.65;;;2.13;;
85873;SDS011;76391;44.166;2.958;2024-02-26T21:08:30;12.90;;;5.15;;
85873;SDS011;76391;44.166;2.958;2024-02-26T21:10:57;12.68;;;5.63;;
85873;SDS011;76391;44.166;2.958;2024-02-26T21:13:22;9.55;;;4.30;;
85873;SDS011;76391;44.166;2.958;2024-02-26T21:15:48;52.97;;;17.63;;
85873;SDS011;76391;44.166;2.958;2024-02-26T21:18:14;69.13;;;22.40;;
85873;SDS011;76391;44.166;2.958;2024-02-26T21:20:39;29.65;;;11.30;;
85873;SDS011;76391;44.166;2.958;2024-02-26T21:23:05;14.05;;;6.30;;
85873;SDS011;76391;44.166;2.958;2024-02-26T21:25:33;13.35;;;5.65;;
85873;SDS011;76391;44.166;2.958;2024-02-26T21:27:58;8.20;;;3.63;;
85873;SDS011;76391;44.166;2.958;2024-02-26T21:30:25;6.40;;;2.60;;
85873;SDS011;76391;44.166;2.958;2024-02-26T21:32:51;6.35;;;2.38;;
85873;SDS011;76391;44.166;2.958;2024-02-26T21:35:17;8.45;;;3.00;;
85873;SDS011;76391;44.166;2.958;2024-02-26T21:41:23;9.38;;;3.42;;
85873;SDS011;76391;44.166;2.958;2024-02-26T21:43:49;9.65;;;3.83;;
85873;SDS011;76391;44.166;2.958;2024-02-26T21:46:21;10.98;;;4.43;;
85873;SDS011;76391;44.166;2.958;2024-02-26T21:48:49;6.65;;;2.92;;
85873;SDS011;76391;44.166;2.958;2024-02-26T21:51:15;19.52;;;8.15;;
85873;SDS011;76391;44.166;2.958;2024-02-26T21:53:40;10.88;;;6.38;;
85873;SDS011;76391;44.166;2.958;2024-02-26T21:56:06;16.63;;;6.00;;
85873;SDS011;76391;44.166;2.958;2024-02-26T21:58:32;9.93;;;4.30;;
85873;SDS011;76391;44.166;2.958;2024-02-26T22:00:58;4.13;;;2.45;;
85873;SDS011;76391;44.166;2.958;2024-02-26T22:03:24;4.35;;;1.85;;
85873;SDS011;76391;44.166;2.958;2024-02-26T22:05:50;3.47;;;1.58;;
85873;SDS011;76391;44.166;2.958;2024-02-26T22:08:16;6.85;;;1.92;;
85873;SDS011;76391;44.166;2.958;2024-02-26T22:10:42;4.97;;;2.25;;
85873;SDS011;76391;44.166;2.958;2024-02-26T22:13:10;7.45;;;3.17;;
85873;SDS011;76391;44.166;2.958;2024-02-26T22:15:36;6.88;;;3.95;;
85873;SDS011;76391;44.166;2.958;2024-02-26T22:18:02;5.97;;;3.58;;
85873;SDS011;76391;44.166;2.958;2024-02-26T22:20:28;5.55;;;3.38;;
85873;SDS011;76391;44.166;2.958;2024-02-26T22:22:53;9.93;;;3.72;;
85873;SDS011;76391;44.166;2.958;2024-02-26T22:25:19;7.68;;;3.50;;
85873;SDS011;76391;44.166;2.958;2024-02-26T22:31:25;5.80;;;2.05;;
85873;SDS011;76391;44.166;2.958;2024-02-26T22:34:16;3.90;;;1.20;;
85873;SDS011;76391;44.166;2.958;2024-02-26T22:37:07;3.53;;;1.00;;
85873;SDS011;76391;44.166;2.958;2024-02-26T22:39:33;4.35;;;2.10;;
85873;SDS011;76391;44.166;2.958;2024-02-26T22:41:58;7.53;;;2.00;;
85873;SDS011;76391;44.166;2.958;2024-02-26T22:44:25;5.00;;;1.75;;
85873;SDS011;76391;44.166;2.958;2024-02-26T22:46:52;7.03;;;2.28;;
85873;SDS011;76391;44.166;2.958;2024-02-26T22:49:18;7.28;;;2.80;;
85873;SDS011;76391;44.166;2.958;2024-02-26T22:51:44;9.55;;;4.78;;
85873;SDS011;76391;44.166;2.958;2024-02-26T22:54:09;10.68;;;7.47;;
85873;SDS011;76391;44.166;2.958;2024-02-26T22:56:35;7.70;;;3.03;;
85873;SDS011;76391;44.166;2.958;2024-02-26T22:59:01;7.20;;;3.40;;
85873;SDS011;76391;44.166;2.958;2024-02-26T23:01:30;9.35;;;4.55;;
85873;SDS011;76391;44.166;2.958;2024-02-26T23:03:56;7.13;;;4.10;;
85873;SDS011;76391;44.166;2.958;2024-02-26T23:06:22;6.85;;;2.70;;
85873;SDS011;76391;44.166;2.958;2024-02-26T23:08:48;6.22;;;2.13;;
85873;SDS011;76391;44.166;2.958;2024-02-26T23:11:13;3.70;;;2.03;;
85873;SDS011;76391;44.166;2.958;2024-02-26T23:13:39;5.07;;;2.58;;
85873;SDS011;76391;44.166;2.958;2024-02-26T23:16:07;5.75;;;2.47;;
85873;SDS011;76391;44.166;2.958;2024-02-26T23:18:33;6.40;;;2.40;;
85873;SDS011;76391;44.166;2.958;2024-02-26T23:20:59;6.45;;;2.97;;
85873;SDS011;76391;44.166;2.958;2024-02-26T23:23:26;4.60;;;2.13;;
85873;SDS011;76391;44.166;2.958;2024-02-26T23:25:51;5.25;;;2.50;;
85873;SDS011;76391;44.166;2.958;2024-02-26T23:28:17;8.90;;;3.00;;